sensor_id;sensor_type;location;lat;lon;timestamp;P1;durP1;ratioP1;P2;durP2;ratioP2
12888;SDS011;56848;49.896;11.424;2022-08-05T04:01:53;3.70;;;3.40;;
12888;SDS011;56848;49.896;11.424;2022-08-05T04:04:20;4.70;;;3.90;;
12888;SDS011;56848;49.896;11.424;2022-08-05T04:06:47;14.33;;;3.80;;
12888;SDS011;56848;49.896;11.424;2022-08-05T04:09:13;5.47;;;3.53;;
12888;SDS011;56848;49.896;11.424;2022-08-05T04:11:40;4.27;;;3.83;;
12888;SDS011;56848;49.896;11.424;2022-08-05T04:14:06;8.00;;;4.20;;
12888;SDS011;56848;49.896;11.424;2022-08-05T04:16:33;5.67;;;3.53;;
12888;SDS011;56848;49.896;11.424;2022-08-05T04:18:59;10.60;;;4.13;;
12888;SDS011;56848;49.896;11.424;2022-08-05T04:21:26;8.17;;;3.73;;
12888;SDS011;56848;49.896;11.424;2022-08-05T04:23:52;4.60;;;3.70;;
12888;SDS011;56848;49.896;11.424;2022-08-05T04:26:18;4.67;;;4.00;;
12888;SDS011;56848;49.896;11.424;2022-08-05T04:28:43;3.90;;;3.50;;
12888;SDS011;56848;49.896;11.424;2022-08-05T04:31:09;19.00;;;4.30;;
12888;SDS011;56848;49.896;11.424;2022-08-05T04:33:35;5.37;;;3.67;;
12888;SDS011;56848;49.896;11.424;2022-08-05T04:36:00;4.30;;;3.53;;
12888;SDS011;56848;49.896;11.424;2022-08-05T04:38:26;4.10;;;3.80;;
12888;SDS011;56848;49.896;11.424;2022-08-05T04:40:52;4.40;;;4.00;;
12888;SDS011;56848;49.896;11.424;2022-08-05T04:43:17;6.73;;;4.27;;
12888;SDS011;56848;49.896;11.424;2022-08-05T04:45:43;5.60;;;4.37;;
12888;SDS011;56848;49.896;11.424;2022-08-05T04:48:10;5.00;;;3.90;;
12888;SDS011;56848;49.896;11.424;2022-08-05T04:50:38;5.67;;;3.53;;
12888;SDS011;56848;49.896;11.424;2022-08-05T04:53:06;4.20;;;3.80;;
12888;SDS011;56848;49.896;11.424;2022-08-05T04:55:32;10.50;;;4.70;;
12888;SDS011;56848;49.896;11.424;2022-08-05T04:57:58;5.80;;;3.97;;
12888;SDS011;56848;49.896;11.424;2022-08-05T05:00:23;7.77;;;3.70;;
12888;SDS011;56848;49.896;11.424;2022-08-05T05:02:49;4.50;;;4.10;;
12888;SDS011;56848;49.896;11.424;2022-08-05T05:05:15;6.17;;;3.80;;
12888;SDS011;56848;49.896;11.424;2022-08-05T05:07:41;5.60;;;4.00;;
12888;SDS011;56848;49.896;11.424;2022-08-05T05:10:07;4.30;;;4.00;;
12888;SDS011;56848;49.896;11.424;2022-08-05T05:12:32;4.17;;;3.87;;
12888;SDS011;56848;49.896;11.424;2022-08-05T05:14:58;4.70;;;4.20;;
12888;SDS011;56848;49.896;11.424;2022-08-05T05:17:24;5.50;;;4.40;;
12888;SDS011;56848;49.896;11.424;2022-08-05T05:19:53;4.30;;;3.90;;
12888;SDS011;56848;49.896;11.424;2022-08-05T05:22:21;5.20;;;3.30;;
12888;SDS011;56848;49.896;11.424;2022-08-05T05:24:47;4.33;;;3.47;;
12888;SDS011;56848;49.896;11.424;2022-08-05T05:27:13;4.47;;;4.07;;
12888;SDS011;56848;49.896;11.424;2022-08-05T05:29:38;6.67;;;4.20;;
12888;SDS011;56848;49.896;11.424;2022-08-05T05:32:04;4.93;;;3.67;;
12888;SDS011;56848;49.896;11.424;2022-08-05T05:34:30;5.63;;;3.87;;
12888;SDS011;56848;49.896;11.424;2022-08-05T05:36:56;9.07;;;5.33;;
12888;SDS011;56848;49.896;11.424;2022-08-05T05:39:21;6.20;;;3.80;;
12888;SDS011;56848;49.896;11.424;2022-08-05T05:41:47;6.23;;;3.70;;
12888;SDS011;56848;49.896;11.424;2022-08-05T05:44:12;4.00;;;3.70;;
12888;SDS011;56848;49.896;11.424;2022-08-05T05:46:38;5.20;;;3.33;;
12888;SDS011;56848;49.896;11.424;2022-08-05T05:49:04;7.47;;;4.10;;
12888;SDS011;56848;49.896;11.424;2022-08-05T05:51:29;4.30;;;3.63;;
12888;SDS011;56848;49.896;11.424;2022-08-05T05:53:55;7.30;;;3.50;;
12888;SDS011;56848;49.896;11.424;2022-08-05T05:56:21;4.03;;;3.37;;
12888;SDS011;56848;49.896;11.424;2022-08-05T05:58:47;4.33;;;3.33;;
12888;SDS011;56848;49.896;11.424;2022-08-05T06:01:13;6.30;;;3.67;;
12888;SDS011;56848;49.896;11.424;2022-08-05T06:03:40;4.50;;;3.83;;
12888;SDS011;56848;49.896;11.424;2022-08-05T06:06:06;4.57;;;4.20;;
12888;SDS011;56848;49.896;11.424;2022-08-05T06:08:32;4.00;;;3.70;;
12888;SDS011;56848;49.896;11.424;2022-08-05T06:10:57;10.33;;;4.63;;
12888;SDS011;56848;49.896;11.424;2022-08-05T06:13:23;5.20;;;3.83;;
12888;SDS011;56848;49.896;11.424;2022-08-05T06:15:49;5.67;;;3.77;;
12888;SDS011;56848;49.896;11.424;2022-08-05T06:18:14;3.83;;;3.57;;
12888;SDS011;56848;49.896;11.424;2022-08-05T06:20:40;4.40;;;4.00;;
12888;SDS011;56848;49.896;11.424;2022-08-05T06:23:06;4.10;;;3.80;;
12888;SDS011;56848;49.896;11.424;2022-08-05T06:25:31;6.03;;;4.13;;
12888;SDS011;56848;49.896;11.424;2022-08-05T06:27:57;4.53;;;3.90;;
12888;SDS011;56848;49.896;11.424;2022-08-05T06:30:22;6.37;;;3.87;;
12888;SDS011;56848;49.896;11.424;2022-08-05T06:32:50;4.40;;;4.10;;
12888;SDS011;56848;49.896;11.424;2022-08-05T06:35:16;5.93;;;3.90;;
12888;SDS011;56848;49.896;11.424;2022-08-05T06:37:43;4.10;;;3.80;;
12888;SDS011;56848;49.896;11.424;2022-08-05T06:40:09;5.90;;;3.63;;
12888;SDS011;56848;49.896;11.424;2022-08-05T06:42:36;4.40;;;3.97;;
12888;SDS011;56848;49.896;11.424;2022-08-05T06:45:02;4.23;;;4.03;;
12888;SDS011;56848;49.896;11.424;2022-08-05T06:47:29;4.87;;;4.43;;
12888;SDS011;56848;49.896;11.424;2022-08-05T06:49:54;4.93;;;4.20;;
12888;SDS011;56848;49.896;11.424;2022-08-05T06:52:20;4.77;;;3.90;;
12888;SDS011;56848;49.896;11.424;2022-08-05T06:54:45;11.53;;;4.40;;
12888;SDS011;56848;49.896;11.424;2022-08-05T06:57:11;6.10;;;5.03;;
12888;SDS011;56848;49.896;11.424;2022-08-05T06:59:39;9.10;;;3.80;;
12888;SDS011;56848;49.896;11.424;2022-08-05T07:02:05;4.03;;;3.63;;
12888;SDS011;56848;49.896;11.424;2022-08-05T07:04:31;8.40;;;3.63;;
12888;SDS011;56848;49.896;11.424;2022-08-05T07:06:57;8.63;;;3.50;;
12888;SDS011;56848;49.896;11.424;2022-08-05T07:09:22;6.97;;;3.90;;
12888;SDS011;56848;49.896;11.424;2022-08-05T07:11:48;6.87;;;3.97;;
12888;SDS011;56848;49.896;11.424;2022-08-05T07:14:13;4.10;;;3.70;;
12888;SDS011;56848;49.896;11.424;2022-08-05T07:16:58;11.60;;;3.90;;
12888;SDS011;56848;49.896;11.424;2022-08-05T07:19:25;3.97;;;3.43;;
12888;SDS011;56848;49.896;11.424;2022-08-05T07:21:52;5.50;;;3.57;;
12888;SDS011;56848;49.896;11.424;2022-08-05T07:24:19;5.40;;;3.80;;
12888;SDS011;56848;49.896;11.424;2022-08-05T07:26:45;6.23;;;3.80;;
12888;SDS011;56848;49.896;11.424;2022-08-05T07:29:11;7.83;;;4.00;;
12888;SDS011;56848;49.896;11.424;2022-08-05T07:31:38;5.77;;;3.50;;
12888;SDS011;56848;49.896;11.424;2022-08-05T07:34:04;4.33;;;3.83;;
12888;SDS011;56848;49.896;11.424;2022-08-05T07:36:30;4.20;;;3.77;;
12888;SDS011;56848;49.896;11.424;2022-08-05T07:38:57;5.50;;;3.70;;
12888;SDS011;56848;49.896;11.424;2022-08-05T07:41:27;4.43;;;3.40;;
12888;SDS011;56848;49.896;11.424;2022-08-05T07:43:54;10.07;;;3.63;;
12888;SDS011;56848;49.896;11.424;2022-08-05T07:46:20;12.97;;;3.47;;
12888;SDS011;56848;49.896;11.424;2022-08-05T07:48:46;4.23;;;3.20;;
12888;SDS011;56848;49.896;11.424;2022-08-05T07:51:11;3.70;;;3.33;;
12888;SDS011;56848;49.896;11.424;2022-08-05T07:53:39;7.87;;;3.27;;
12888;SDS011;56848;49.896;11.424;2022-08-05T07:56:05;5.43;;;3.50;;
12888;SDS011;56848;49.896;11.424;2022-08-05T07:58:31;4.17;;;3.40;;
12888;SDS011;56848;49.896;11.424;2022-08-05T08:00:57;7.50;;;3.57;;
12888;SDS011;56848;49.896;11.424;2022-08-05T08:03:22;5.73;;;2.70;;
12888;SDS011;56848;49.896;11.424;2022-08-05T08:05:48;5.20;;;3.27;;
12888;SDS011;56848;49.896;11.424;2022-08-05T08:08:16;5.60;;;3.37;;
12888;SDS011;56848;49.896;11.424;2022-08-05T08:10:42;4.57;;;3.43;;
12888;SDS011;56848;49.896;11.424;2022-08-05T08:13:07;6.03;;;3.93;;
12888;SDS011;56848;49.896;11.424;2022-08-05T08:15:33;6.23;;;3.77;;
12888;SDS011;56848;49.896;11.424;2022-08-05T08:17:58;12.67;;;3.10;;
12888;SDS011;56848;49.896;11.424;2022-08-05T08:20:24;5.00;;;3.63;;
12888;SDS011;56848;49.896;11.424;2022-08-05T08:22:51;4.20;;;3.00;;
12888;SDS011;56848;49.896;11.424;2022-08-05T08:25:18;7.80;;;3.23;;
12888;SDS011;56848;49.896;11.424;2022-08-05T08:27:44;6.27;;;3.20;;
12888;SDS011;56848;49.896;11.424;2022-08-05T08:30:10;4.63;;;3.27;;
12888;SDS011;56848;49.896;11.424;2022-08-05T08:32:36;6.90;;;3.13;;
12888;SDS011;56848;49.896;11.424;2022-08-05T08:35:02;12.93;;;3.13;;
12888;SDS011;56848;49.896;11.424;2022-08-05T08:37:28;5.30;;;3.00;;
12888;SDS011;56848;49.896;11.424;2022-08-05T08:39:53;4.00;;;3.00;;
12888;SDS011;56848;49.896;11.424;2022-08-05T08:42:19;3.90;;;2.97;;
12888;SDS011;56848;49.896;11.424;2022-08-05T08:44:46;2.83;;;2.63;;
12888;SDS011;56848;49.896;11.424;2022-08-05T08:47:12;8.43;;;2.80;;
12888;SDS011;56848;49.896;11.424;2022-08-05T08:49:42;6.37;;;2.97;;
12888;SDS011;56848;49.896;11.424;2022-08-05T08:52:15;12.47;;;3.23;;
12888;SDS011;56848;49.896;11.424;2022-08-05T08:54:47;3.73;;;3.23;;
12888;SDS011;56848;49.896;11.424;2022-08-05T08:57:15;5.13;;;3.07;;
12888;SDS011;56848;49.896;11.424;2022-08-05T08:59:41;4.40;;;3.10;;
12888;SDS011;56848;49.896;11.424;2022-08-05T09:02:07;2.80;;;2.60;;
12888;SDS011;56848;49.896;11.424;2022-08-05T09:04:33;6.30;;;3.07;;
12888;SDS011;56848;49.896;11.424;2022-08-05T09:07:01;5.30;;;3.00;;
12888;SDS011;56848;49.896;11.424;2022-08-05T09:09:34;4.07;;;2.73;;
12888;SDS011;56848;49.896;11.424;2022-08-05T09:12:04;5.00;;;2.97;;
12888;SDS011;56848;49.896;11.424;2022-08-05T09:14:32;4.70;;;3.23;;
12888;SDS011;56848;49.896;11.424;2022-08-05T09:17:08;4.77;;;3.00;;
12888;SDS011;56848;49.896;11.424;2022-08-05T09:19:36;4.00;;;2.77;;
12888;SDS011;56848;49.896;11.424;2022-08-05T09:22:02;2.67;;;2.47;;
12888;SDS011;56848;49.896;11.424;2022-08-05T09:24:28;2.77;;;2.57;;
12888;SDS011;56848;49.896;11.424;2022-08-05T09:26:55;2.83;;;2.57;;
12888;SDS011;56848;49.896;11.424;2022-08-05T09:29:35;3.83;;;2.30;;
12888;SDS011;56848;49.896;11.424;2022-08-05T09:32:03;2.93;;;2.13;;
12888;SDS011;56848;49.896;11.424;2022-08-05T09:34:50;7.63;;;2.40;;
12888;SDS011;56848;49.896;11.424;2022-08-05T09:37:21;4.20;;;2.17;;
12888;SDS011;56848;49.896;11.424;2022-08-05T09:39:48;6.80;;;2.53;;
12888;SDS011;56848;49.896;11.424;2022-08-05T09:42:14;3.47;;;2.20;;
12888;SDS011;56848;49.896;11.424;2022-08-05T09:44:46;4.20;;;2.20;;
12888;SDS011;56848;49.896;11.424;2022-08-05T09:47:18;2.60;;;2.23;;
12888;SDS011;56848;49.896;11.424;2022-08-05T09:52:21;2.27;;;2.10;;
12888;SDS011;56848;49.896;11.424;2022-08-05T09:54:54;6.87;;;2.47;;
12888;SDS011;56848;49.896;11.424;2022-08-05T09:57:28;2.40;;;2.20;;
12888;SDS011;56848;49.896;11.424;2022-08-05T10:00:01;2.20;;;2.00;;
12888;SDS011;56848;49.896;11.424;2022-08-05T10:02:34;7.47;;;2.27;;
12888;SDS011;56848;49.896;11.424;2022-08-05T10:05:03;2.20;;;1.97;;
12888;SDS011;56848;49.896;11.424;2022-08-05T10:07:50;8.60;;;2.50;;
12888;SDS011;56848;49.896;11.424;2022-08-05T10:10:27;2.23;;;2.13;;
12888;SDS011;56848;49.896;11.424;2022-08-05T10:13:03;3.80;;;2.37;;
12888;SDS011;56848;49.896;11.424;2022-08-05T10:15:31;5.50;;;2.10;;
12888;SDS011;56848;49.896;11.424;2022-08-05T10:18:17;4.30;;;2.20;;
12888;SDS011;56848;49.896;11.424;2022-08-05T10:20:51;1.80;;;1.70;;
12888;SDS011;56848;49.896;11.424;2022-08-05T10:23:22;5.90;;;2.10;;
12888;SDS011;56848;49.896;11.424;2022-08-05T10:26:01;11.00;;;2.40;;
12888;SDS011;56848;49.896;11.424;2022-08-05T10:28:28;4.70;;;1.90;;
12888;SDS011;56848;49.896;11.424;2022-08-05T10:30:54;3.40;;;2.07;;
12888;SDS011;56848;49.896;11.424;2022-08-05T10:33:20;1.83;;;1.73;;
12888;SDS011;56848;49.896;11.424;2022-08-05T10:35:48;2.43;;;2.23;;
12888;SDS011;56848;49.896;11.424;2022-08-05T10:38:14;2.30;;;2.10;;
12888;SDS011;56848;49.896;11.424;2022-08-05T10:40:50;5.07;;;1.90;;
12888;SDS011;56848;49.896;11.424;2022-08-05T10:43:34;4.60;;;1.90;;
12888;SDS011;56848;49.896;11.424;2022-08-05T10:46:15;2.10;;;2.00;;
12888;SDS011;56848;49.896;11.424;2022-08-05T10:48:43;1.60;;;1.50;;
12888;SDS011;56848;49.896;11.424;2022-08-05T10:51:14;4.60;;;1.93;;
12888;SDS011;56848;49.896;11.424;2022-08-05T10:56:10;1.90;;;1.80;;
12888;SDS011;56848;49.896;11.424;2022-08-05T10:58:48;2.87;;;1.80;;
12888;SDS011;56848;49.896;11.424;2022-08-05T11:01:37;2.10;;;1.90;;
12888;SDS011;56848;49.896;11.424;2022-08-05T11:04:12;2.70;;;2.47;;
12888;SDS011;56848;49.896;11.424;2022-08-05T11:09:23;3.13;;;1.67;;
12888;SDS011;56848;49.896;11.424;2022-08-05T11:11:50;1.70;;;1.60;;
12888;SDS011;56848;49.896;11.424;2022-08-05T11:14:22;3.50;;;1.90;;
12888;SDS011;56848;49.896;11.424;2022-08-05T11:19:52;1.50;;;1.40;;
12888;SDS011;56848;49.896;11.424;2022-08-05T11:31:19;1.70;;;1.60;;
12888;SDS011;56848;49.896;11.424;2022-08-05T11:36:01;1.80;;;1.70;;
12888;SDS011;56848;49.896;11.424;2022-08-05T11:41:03;1.70;;;1.70;;
12888;SDS011;56848;49.896;11.424;2022-08-05T11:43:30;3.47;;;1.93;;
12888;SDS011;56848;49.896;11.424;2022-08-05T11:45:57;3.20;;;2.07;;
12888;SDS011;56848;49.896;11.424;2022-08-05T11:48:24;2.20;;;2.00;;
12888;SDS011;56848;49.896;11.424;2022-08-05T11:50:51;1.60;;;1.50;;
12888;SDS011;56848;49.896;11.424;2022-08-05T11:53:17;2.13;;;1.77;;
12888;SDS011;56848;49.896;11.424;2022-08-05T11:55:59;2.07;;;1.90;;
12888;SDS011;56848;49.896;11.424;2022-08-05T11:58:30;2.13;;;2.03;;
12888;SDS011;56848;49.896;11.424;2022-08-05T12:01:00;1.73;;;1.63;;
12888;SDS011;56848;49.896;11.424;2022-08-05T12:03:38;2.90;;;2.03;;
12888;SDS011;56848;49.896;11.424;2022-08-05T12:06:10;2.00;;;1.90;;
12888;SDS011;56848;49.896;11.424;2022-08-05T12:08:47;3.53;;;1.80;;
12888;SDS011;56848;49.896;11.424;2022-08-05T12:11:19;4.50;;;2.67;;
12888;SDS011;56848;49.896;11.424;2022-08-05T12:16:19;4.03;;;1.77;;
12888;SDS011;56848;49.896;11.424;2022-08-05T12:18:46;2.80;;;1.77;;
12888;SDS011;56848;49.896;11.424;2022-08-05T12:21:12;2.53;;;1.83;;
12888;SDS011;56848;49.896;11.424;2022-08-05T12:23:40;3.23;;;1.90;;
12888;SDS011;56848;49.896;11.424;2022-08-05T12:26:16;3.77;;;2.03;;
12888;SDS011;56848;49.896;11.424;2022-08-05T12:28:41;1.87;;;1.77;;
12888;SDS011;56848;49.896;11.424;2022-08-05T12:31:07;2.40;;;1.90;;
12888;SDS011;56848;49.896;11.424;2022-08-05T12:33:33;2.13;;;2.03;;
12888;SDS011;56848;49.896;11.424;2022-08-05T12:35:59;5.57;;;1.70;;
12888;SDS011;56848;49.896;11.424;2022-08-05T12:38:26;3.00;;;2.30;;
12888;SDS011;56848;49.896;11.424;2022-08-05T12:40:52;5.60;;;2.13;;
12888;SDS011;56848;49.896;11.424;2022-08-05T12:43:19;2.40;;;1.90;;
12888;SDS011;56848;49.896;11.424;2022-08-05T12:45:52;5.63;;;2.37;;
12888;SDS011;56848;49.896;11.424;2022-08-05T12:48:18;2.03;;;1.93;;
12888;SDS011;56848;49.896;11.424;2022-08-05T12:51:07;2.00;;;1.90;;
12888;SDS011;56848;49.896;11.424;2022-08-05T12:53:43;1.90;;;1.80;;
12888;SDS011;56848;49.896;11.424;2022-08-05T12:56:16;5.23;;;2.10;;
12888;SDS011;56848;49.896;11.424;2022-08-05T12:58:44;2.23;;;2.07;;
12888;SDS011;56848;49.896;11.424;2022-08-05T13:01:12;2.20;;;2.00;;
12888;SDS011;56848;49.896;11.424;2022-08-05T13:03:38;2.17;;;1.97;;
12888;SDS011;56848;49.896;11.424;2022-08-05T13:06:06;3.07;;;2.00;;
12888;SDS011;56848;49.896;11.424;2022-08-05T13:08:32;2.97;;;1.80;;
12888;SDS011;56848;49.896;11.424;2022-08-05T13:11:00;2.13;;;1.93;;
12888;SDS011;56848;49.896;11.424;2022-08-05T13:13:26;3.80;;;1.80;;
12888;SDS011;56848;49.896;11.424;2022-08-05T13:15:53;2.03;;;1.93;;
12888;SDS011;56848;49.896;11.424;2022-08-05T13:18:19;2.00;;;1.87;;
12888;SDS011;56848;49.896;11.424;2022-08-05T13:20:44;3.27;;;2.17;;
12888;SDS011;56848;49.896;11.424;2022-08-05T13:23:10;10.80;;;2.07;;
12888;SDS011;56848;49.896;11.424;2022-08-05T13:25:36;2.40;;;2.20;;
12888;SDS011;56848;49.896;11.424;2022-08-05T13:28:02;2.47;;;2.27;;
12888;SDS011;56848;49.896;11.424;2022-08-05T13:30:29;5.73;;;2.17;;
12888;SDS011;56848;49.896;11.424;2022-08-05T13:32:54;6.57;;;2.03;;
12888;SDS011;56848;49.896;11.424;2022-08-05T13:35:20;4.53;;;2.10;;
12888;SDS011;56848;49.896;11.424;2022-08-05T13:37:47;4.57;;;1.93;;
12888;SDS011;56848;49.896;11.424;2022-08-05T13:40:13;2.20;;;2.10;;
12888;SDS011;56848;49.896;11.424;2022-08-05T13:42:39;4.30;;;2.57;;
12888;SDS011;56848;49.896;11.424;2022-08-05T13:45:05;2.70;;;1.83;;
12888;SDS011;56848;49.896;11.424;2022-08-05T13:47:32;1.93;;;1.83;;
12888;SDS011;56848;49.896;11.424;2022-08-05T13:49:58;2.00;;;1.90;;
12888;SDS011;56848;49.896;11.424;2022-08-05T13:52:25;2.10;;;2.00;;
12888;SDS011;56848;49.896;11.424;2022-08-05T13:54:54;2.80;;;2.00;;
12888;SDS011;56848;49.896;11.424;2022-08-05T13:57:20;2.43;;;2.23;;
12888;SDS011;56848;49.896;11.424;2022-08-05T13:59:46;4.17;;;2.50;;
12888;SDS011;56848;49.896;11.424;2022-08-05T14:02:12;5.17;;;2.10;;
12888;SDS011;56848;49.896;11.424;2022-08-05T14:04:39;2.00;;;1.90;;
12888;SDS011;56848;49.896;11.424;2022-08-05T14:07:26;2.07;;;1.97;;
12888;SDS011;56848;49.896;11.424;2022-08-05T14:09:56;4.10;;;2.13;;
12888;SDS011;56848;49.896;11.424;2022-08-05T14:12:22;2.50;;;2.30;;
12888;SDS011;56848;49.896;11.424;2022-08-05T14:14:48;4.63;;;2.43;;
12888;SDS011;56848;49.896;11.424;2022-08-05T14:17:14;2.30;;;2.10;;
12888;SDS011;56848;49.896;11.424;2022-08-05T14:19:43;2.67;;;1.97;;
12888;SDS011;56848;49.896;11.424;2022-08-05T14:22:09;2.10;;;1.90;;
12888;SDS011;56848;49.896;11.424;2022-08-05T14:24:35;3.10;;;2.03;;
12888;SDS011;56848;49.896;11.424;2022-08-05T14:27:02;3.73;;;2.50;;
12888;SDS011;56848;49.896;11.424;2022-08-05T14:29:28;4.40;;;2.00;;
12888;SDS011;56848;49.896;11.424;2022-08-05T14:31:53;7.17;;;2.10;;
12888;SDS011;56848;49.896;11.424;2022-08-05T14:34:19;3.57;;;2.03;;
12888;SDS011;56848;49.896;11.424;2022-08-05T14:36:45;2.70;;;2.50;;
12888;SDS011;56848;49.896;11.424;2022-08-05T14:39:10;2.43;;;2.23;;
12888;SDS011;56848;49.896;11.424;2022-08-05T14:41:36;2.27;;;2.17;;
12888;SDS011;56848;49.896;11.424;2022-08-05T14:44:02;6.03;;;2.13;;
12888;SDS011;56848;49.896;11.424;2022-08-05T14:46:28;2.80;;;1.97;;
12888;SDS011;56848;49.896;11.424;2022-08-05T14:48:54;3.40;;;1.90;;
12888;SDS011;56848;49.896;11.424;2022-08-05T14:51:21;2.10;;;1.90;;
12888;SDS011;56848;49.896;11.424;2022-08-05T14:53:46;3.03;;;1.90;;
12888;SDS011;56848;49.896;11.424;2022-08-05T14:56:13;2.10;;;2.00;;
12888;SDS011;56848;49.896;11.424;2022-08-05T14:58:40;7.53;;;2.17;;
12888;SDS011;56848;49.896;11.424;2022-08-05T15:01:05;2.53;;;2.20;;
12888;SDS011;56848;49.896;11.424;2022-08-05T15:03:31;2.30;;;2.10;;
12888;SDS011;56848;49.896;11.424;2022-08-05T15:05:57;2.00;;;1.90;;
12888;SDS011;56848;49.896;11.424;2022-08-05T15:08:23;3.10;;;1.97;;
12888;SDS011;56848;49.896;11.424;2022-08-05T15:10:49;3.13;;;2.57;;
12888;SDS011;56848;49.896;11.424;2022-08-05T15:13:15;2.60;;;1.90;;
12888;SDS011;56848;49.896;11.424;2022-08-05T15:15:41;2.13;;;1.93;;
12888;SDS011;56848;49.896;11.424;2022-08-05T15:18:06;2.20;;;2.00;;
12888;SDS011;56848;49.896;11.424;2022-08-05T15:20:32;15.37;;;2.30;;
12888;SDS011;56848;49.896;11.424;2022-08-05T15:23:04;3.30;;;2.03;;
12888;SDS011;56848;49.896;11.424;2022-08-05T15:25:31;2.90;;;1.97;;
12888;SDS011;56848;49.896;11.424;2022-08-05T15:27:57;4.60;;;1.90;;
12888;SDS011;56848;49.896;11.424;2022-08-05T15:30:22;5.30;;;2.00;;
12888;SDS011;56848;49.896;11.424;2022-08-05T15:32:48;3.77;;;1.70;;
12888;SDS011;56848;49.896;11.424;2022-08-05T15:35:14;1.60;;;1.60;;
12888;SDS011;56848;49.896;11.424;2022-08-05T15:37:39;4.73;;;1.83;;
12888;SDS011;56848;49.896;11.424;2022-08-05T15:40:05;2.40;;;1.60;;
12888;SDS011;56848;49.896;11.424;2022-08-05T15:42:31;2.30;;;1.73;;
12888;SDS011;56848;49.896;11.424;2022-08-05T15:44:57;3.00;;;1.90;;
12888;SDS011;56848;49.896;11.424;2022-08-05T15:47:23;5.53;;;1.83;;
12888;SDS011;56848;49.896;11.424;2022-08-05T15:49:49;1.73;;;1.63;;
12888;SDS011;56848;49.896;11.424;2022-08-05T15:52:16;1.83;;;1.73;;
12888;SDS011;56848;49.896;11.424;2022-08-05T15:54:42;2.20;;;2.10;;
12888;SDS011;56848;49.896;11.424;2022-08-05T15:57:08;2.37;;;2.20;;
12888;SDS011;56848;49.896;11.424;2022-08-05T15:59:34;3.83;;;1.87;;
12888;SDS011;56848;49.896;11.424;2022-08-05T16:02:00;2.20;;;2.10;;
12888;SDS011;56848;49.896;11.424;2022-08-05T16:04:25;1.97;;;1.87;;
12888;SDS011;56848;49.896;11.424;2022-08-05T16:06:52;2.60;;;1.70;;
12888;SDS011;56848;49.896;11.424;2022-08-05T16:09:18;2.23;;;2.13;;
12888;SDS011;56848;49.896;11.424;2022-08-05T16:11:43;2.07;;;1.90;;
12888;SDS011;56848;49.896;11.424;2022-08-05T16:14:09;2.03;;;1.90;;
12888;SDS011;56848;49.896;11.424;2022-08-05T16:16:35;3.47;;;2.20;;
12888;SDS011;56848;49.896;11.424;2022-08-05T16:19:01;2.20;;;1.97;;
12888;SDS011;56848;49.896;11.424;2022-08-05T16:21:27;6.87;;;2.17;;
12888;SDS011;56848;49.896;11.424;2022-08-05T16:23:53;3.93;;;2.30;;
12888;SDS011;56848;49.896;11.424;2022-08-05T16:26:19;2.67;;;2.07;;
12888;SDS011;56848;49.896;11.424;2022-08-05T16:28:45;6.10;;;2.50;;
12888;SDS011;56848;49.896;11.424;2022-08-05T16:31:10;2.70;;;2.20;;
12888;SDS011;56848;49.896;11.424;2022-08-05T16:33:36;3.17;;;1.90;;
12888;SDS011;56848;49.896;11.424;2022-08-05T16:36:02;2.10;;;2.00;;
12888;SDS011;56848;49.896;11.424;2022-08-05T16:38:28;2.90;;;2.67;;
12888;SDS011;56848;49.896;11.424;2022-08-05T16:40:55;2.73;;;2.53;;
12888;SDS011;56848;49.896;11.424;2022-08-05T16:43:23;4.87;;;2.47;;
12888;SDS011;56848;49.896;11.424;2022-08-05T16:45:50;5.00;;;2.53;;
12888;SDS011;56848;49.896;11.424;2022-08-05T16:48:17;2.53;;;2.37;;
12888;SDS011;56848;49.896;11.424;2022-08-05T16:50:43;5.13;;;2.27;;
12888;SDS011;56848;49.896;11.424;2022-08-05T16:53:08;2.80;;;2.60;;
12888;SDS011;56848;49.896;11.424;2022-08-05T16:55:34;3.10;;;2.70;;
12888;SDS011;56848;49.896;11.424;2022-08-05T16:58:00;4.47;;;2.53;;
12888;SDS011;56848;49.896;11.424;2022-08-05T17:00:25;4.20;;;2.60;;
12888;SDS011;56848;49.896;11.424;2022-08-05T17:02:51;2.47;;;2.27;;
12888;SDS011;56848;49.896;11.424;2022-08-05T17:05:17;3.93;;;2.73;;
12888;SDS011;56848;49.896;11.424;2022-08-05T17:07:43;4.00;;;2.60;;
12888;SDS011;56848;49.896;11.424;2022-08-05T17:10:09;5.77;;;2.40;;
12888;SDS011;56848;49.896;11.424;2022-08-05T17:12:34;2.70;;;2.50;;
12888;SDS011;56848;49.896;11.424;2022-08-05T17:15:00;5.40;;;2.57;;
12888;SDS011;56848;49.896;11.424;2022-08-05T17:17:26;6.10;;;2.97;;
12888;SDS011;56848;49.896;11.424;2022-08-05T17:19:57;3.20;;;3.00;;
12888;SDS011;56848;49.896;11.424;2022-08-05T17:22:33;3.80;;;3.10;;
12888;SDS011;56848;49.896;11.424;2022-08-05T17:24:59;3.47;;;2.90;;
12888;SDS011;56848;49.896;11.424;2022-08-05T17:27:25;4.20;;;2.93;;
12888;SDS011;56848;49.896;11.424;2022-08-05T17:29:52;2.83;;;2.43;;
12888;SDS011;56848;49.896;11.424;2022-08-05T17:32:17;5.23;;;3.13;;
12888;SDS011;56848;49.896;11.424;2022-08-05T17:34:46;3.63;;;3.33;;
12888;SDS011;56848;49.896;11.424;2022-08-05T17:37:12;3.20;;;3.00;;
12888;SDS011;56848;49.896;11.424;2022-08-05T17:39:38;5.30;;;3.30;;
12888;SDS011;56848;49.896;11.424;2022-08-05T17:42:05;4.00;;;2.80;;
12888;SDS011;56848;49.896;11.424;2022-08-05T17:44:31;3.17;;;2.97;;
12888;SDS011;56848;49.896;11.424;2022-08-05T17:46:59;2.70;;;2.50;;
12888;SDS011;56848;49.896;11.424;2022-08-05T17:49:25;3.07;;;2.87;;
12888;SDS011;56848;49.896;11.424;2022-08-05T17:51:50;3.40;;;3.10;;
12888;SDS011;56848;49.896;11.424;2022-08-05T17:54:16;5.67;;;3.33;;
12888;SDS011;56848;49.896;11.424;2022-08-05T17:56:42;5.03;;;3.30;;
12888;SDS011;56848;49.896;11.424;2022-08-05T17:59:08;4.40;;;3.10;;
12888;SDS011;56848;49.896;11.424;2022-08-05T18:01:34;3.03;;;2.80;;
12888;SDS011;56848;49.896;11.424;2022-08-05T18:03:59;4.23;;;3.20;;
12888;SDS011;56848;49.896;11.424;2022-08-05T18:06:25;3.23;;;2.80;;
12888;SDS011;56848;49.896;11.424;2022-08-05T18:08:51;4.23;;;3.13;;
12888;SDS011;56848;49.896;11.424;2022-08-05T18:11:17;4.43;;;3.20;;
12888;SDS011;56848;49.896;11.424;2022-08-05T18:13:43;4.70;;;3.37;;
12888;SDS011;56848;49.896;11.424;2022-08-05T18:16:09;3.63;;;3.33;;
12888;SDS011;56848;49.896;11.424;2022-08-05T18:18:36;4.20;;;3.23;;
12888;SDS011;56848;49.896;11.424;2022-08-05T18:21:01;6.53;;;3.10;;
12888;SDS011;56848;49.896;11.424;2022-08-05T18:23:27;4.20;;;3.20;;
12888;SDS011;56848;49.896;11.424;2022-08-05T18:25:53;5.17;;;3.60;;
12888;SDS011;56848;49.896;11.424;2022-08-05T18:28:19;4.80;;;3.77;;
12888;SDS011;56848;49.896;11.424;2022-08-05T18:30:45;7.70;;;2.90;;
12888;SDS011;56848;49.896;11.424;2022-08-05T18:33:11;3.37;;;3.07;;
12888;SDS011;56848;49.896;11.424;2022-08-05T18:35:37;3.20;;;2.90;;
12888;SDS011;56848;49.896;11.424;2022-08-05T18:38:03;10.40;;;3.03;;
12888;SDS011;56848;49.896;11.424;2022-08-05T18:40:29;6.03;;;3.13;;
12888;SDS011;56848;49.896;11.424;2022-08-05T18:42:55;3.87;;;3.27;;
12888;SDS011;56848;49.896;11.424;2022-08-05T18:45:22;6.23;;;3.50;;
12888;SDS011;56848;49.896;11.424;2022-08-05T18:47:48;3.43;;;3.13;;
12888;SDS011;56848;49.896;11.424;2022-08-05T18:50:14;4.10;;;3.77;;
12888;SDS011;56848;49.896;11.424;2022-08-05T18:52:58;4.73;;;3.73;;
12888;SDS011;56848;49.896;11.424;2022-08-05T18:55:24;3.63;;;3.33;;
12888;SDS011;56848;49.896;11.424;2022-08-05T18:57:50;4.00;;;3.60;;
12888;SDS011;56848;49.896;11.424;2022-08-05T19:00:16;8.93;;;3.93;;
12888;SDS011;56848;49.896;11.424;2022-08-05T19:02:42;3.70;;;3.20;;